Kosho Maru No.2 — JD2440 — position and weather

sailwx.info

Track history (hours):
 
Tides and Currents Weather Stations Pressure Air Temp Water Temp Dewpoint Dewpoint Depression Visibility Wind Speed Wind Dir Waves Ship Positions

Kosho Maru No.2

Last reported at 2018-Feb-14 12:32 UTC. Time now 2018-Feb-17 23:59 UTC.
Position N 34°46' E 139°16'.

Length 75 m; draft 4.5 m.

Type: Cargo ship. MMSI: 431000218.

Date/timePositionNaut miles runAvg speedWind from/ knotsBaromVisibWave heightAir tempDewpointWater temp
2018-Feb-14 12:32N 34°46' E 139°16'014.8
2018-Feb-14 12:30N 34°45' E 139°15'713.6
2018-Feb-14 11:59N 34°41' E 139°08'812.5
2018-Feb-14 11:21N 34°37' E 139°00'513.2
2018-Feb-14 11:00N 34°35' E 138°55'1212.2
2018-Feb-14 10:02N 34°34' E 138°41'111.5
2018-Feb-14 09:59N 34°34' E 138°40'611.1
2018-Feb-14 09:25N 34°34' E 138°33'18010.0
2018-Feb-13 15:32N 33°51' E 135°02'013.0
2018-Feb-13 15:30N 33°52' E 135°02'611.7
2018-Feb-13 15:00N 33°56' E 134°57'611.7
2018-Feb-13 14:30N 34°01' E 134°53'611.7
2018-Feb-13 14:00N 34°05' E 134°48'812.3
2018-Feb-13 13:23N 34°11' E 134°42'612.8
2018-Feb-13 12:52N 34°16' E 134°37'511.9
2018-Feb-13 12:27N 34°18' E 134°31'511.6
2018-Feb-13 12:00N 34°20' E 134°25'  
2018-Feb-08 17:30N 33°59' E 132°35'7110.9
2018-Feb-08 11:00N 33°52' E 131°10'612.1
2018-Feb-08 10:30N 33°56' E 131°04'510.9
2018-Feb-08 10:00N 33°58' E 130°59'8 8.4
2018-Feb-08 09:00N 33°58' E 130°48'1211.7
2018-Feb-08 08:00N 33°57' E 130°34'611.1
2018-Feb-08 07:30N 33°55' E 130°28'611.6
2018-Feb-08 07:00N 33°50' E 130°24'611.7
2018-Feb-08 06:30N 33°46' E 130°19'511.0
2018-Feb-08 06:00N 33°41' E 130°16'8 1.7
2018-Feb-08 01:28N 33°37' E 130°24'0 0.0
2018-Feb-08 00:58N 33°37' E 130°24'0 0.0
2018-Feb-08 00:28N 33°37' E 130°24'0 0.0
2018-Feb-07 23:58N 33°37' E 130°24'0 0.0
2018-Feb-07 23:28N 33°37' E 130°24'0 0.0
2018-Feb-07 23:00N 33°37' E 130°24'3 5.0
2018-Feb-07 22:30N 33°37' E 130°21'0 0.2
2018-Feb-07 22:00N 33°37' E 130°21'0 0.0
2018-Feb-07 21:30N 33°37' E 130°21'0 0.0
2018-Feb-07 09:30N 33°37' E 130°21'0 0.0
2018-Feb-07 09:00N 33°37' E 130°21'0 0.0
2018-Feb-07 08:30N 33°37' E 130°21'0 0.0
2018-Feb-07 08:00N 33°37' E 130°21'0 0.0
2018-Feb-07 07:30N 33°37' E 130°21'0 0.0
2018-Feb-07 07:00N 33°37' E 130°21'0 0.0
2018-Feb-07 06:30N 33°37' E 130°21'0 0.1
2018-Feb-07 06:00N 33°37' E 130°21'3 6.9
2018-Feb-07 05:30N 33°39' E 130°18'5 9.1
2018-Feb-07 05:01N 33°43' E 130°17'510.6
2018-Feb-07 04:30N 33°48' E 130°21'510.7
2018-Feb-07 04:00N 33°52' E 130°25'510.5
2018-Feb-07 03:30N 33°56' E 130°29'510.2
2018-Feb-07 03:00N 33°58' E 130°35'510.3
2018-Feb-07 02:29N 33°58' E 130°41'510.2
2018-Feb-07 02:00N 33°58' E 130°47'5 9.6
2018-Feb-07 01:30N 33°56' E 130°53'3 6.0
2018-Feb-07 01:00N 33°56' E 130°56'5 4.8
2018-Feb-07 00:00N 33°56' E 131°02'0 0.1
2018-Feb-06 23:29N 33°56' E 131°02'0 0.0
2018-Feb-06 22:56N 33°56' E 131°02'0 0.0
2018-Feb-06 22:29N 33°56' E 131°02'0 0.0
2018-Feb-06 21:59N 33°56' E 131°02'0 0.0
2018-Feb-06 21:26N 33°56' E 131°02'0 0.0
2018-Feb-06 20:59N 33°56' E 131°02'0 0.0
2018-Feb-06 20:29N 33°56' E 131°02'0 0.0
2018-Feb-06 19:59N 33°56' E 131°02'0 0.1
2018-Feb-06 19:29N 33°56' E 131°02'0 0.0
2018-Feb-06 18:59N 33°56' E 131°02'0 0.0
2018-Feb-06 18:29N 33°56' E 131°02'0 0.0
2018-Feb-06 17:59N 33°56' E 131°02'0 0.0
2018-Feb-06 17:29N 33°56' E 131°02'0 0.0
2018-Feb-06 16:59N 33°56' E 131°02'0 0.1
2018-Feb-06 16:26N 33°56' E 131°02'0 0.0
2018-Feb-06 15:59N 33°56' E 131°02'0 0.0
2018-Feb-06 15:29N 33°56' E 131°02'0 0.0
2018-Feb-06 14:56N 33°56' E 131°02'0 0.1
2018-Feb-06 14:29N 33°56' E 131°02'0 0.1
2018-Feb-06 13:59N 33°56' E 131°02'0 0.0
2018-Feb-06 13:29N 33°56' E 131°02'0 0.0
2018-Feb-06 12:59N 33°56' E 131°02'0 0.0
2018-Feb-06 12:29N 33°56' E 131°02'0 0.1
2018-Feb-06 11:59N 33°56' E 131°02'0 0.1
2018-Feb-06 11:26N 33°56' E 131°02'0 0.0
2018-Feb-06 10:59N 33°56' E 131°02'0 0.0
2018-Feb-06 10:29N 33°56' E 131°02'0 0.0
2018-Feb-06 09:59N 33°56' E 131°02'0 0.0
2018-Feb-06 09:29N 33°56' E 131°02'0 0.0
2018-Feb-06 08:59N 33°56' E 131°02'0 0.0
2018-Feb-06 08:29N 33°56' E 131°02'0 0.1
2018-Feb-06 07:59N 33°56' E 131°02'0 0.0
2018-Feb-06 07:29N 33°56' E 131°02'0 0.0
2018-Feb-06 06:59N 33°56' E 131°02'0 0.0
2018-Feb-06 06:29N 33°56' E 131°02'0 0.0
2018-Feb-06 05:59N 33°56' E 131°02'0 0.0
2018-Feb-06 05:29N 33°56' E 131°02'0 0.0
2018-Feb-06 04:56N 33°56' E 131°02'0 0.0
2018-Feb-06 04:29N 33°56' E 131°02'0 0.0
2018-Feb-06 03:59N 33°56' E 131°02'0 0.0
2018-Feb-06 03:26N 33°56' E 131°02'0 0.0
2018-Feb-06 02:59N 33°56' E 131°02'12 8.2
2018-Feb-06 01:30N 33°51' E 131°15'510.8
2018-Feb-06 01:00N 33°53' E 131°21'2710.7
2018-Feb-05 22:28N 33°52' E 131°54'810.1
2018-Feb-05 21:43N 33°47' E 132°01'210.5
2018-Feb-05 21:30N 33°46' E 132°03'811.3
2018-Feb-05 20:45N 33°50' E 132°12'311.4
2018-Feb-05 20:30N 33°50' E 132°15'611.5
2018-Feb-05 20:00N 33°50' E 132°22'612.0
2018-Feb-05 19:28N 33°54' E 132°28'711.7
2018-Feb-05 18:51N 33°59' E 132°35'410.9
2018-Feb-05 18:30N 34°02' E 132°38'24 9.6
2018-Feb-05 15:59N 34°18' E 132°60'62 9.3
2018-Feb-05 09:19N 34°24' E 134°14'3 9.2
2018-Feb-05 09:01N 34°25' E 134°18'6 9.6
2018-Feb-05 08:26N 34°26' E 134°24'4 9.9
2018-Feb-05 08:00N 34°28' E 134°29'510.0
2018-Feb-05 07:30N 34°29' E 134°35'5 9.9
2018-Feb-05 06:59N 34°31' E 134°41'5 9.9
2018-Feb-05 06:30N 34°33' E 134°46'10 9.8
2018-Feb-05 05:30N 34°37' E 134°57'5 9.0
2018-Feb-05 05:00N 34°37' E 135°02'510.0
2018-Feb-05 04:31N 34°36' E 135°08'510.2
2018-Feb-05 04:00N 34°36' E 135°14'510.1
2018-Feb-05 03:31N 34°36' E 135°21'4 9.0
2018-Feb-05 03:00N 34°35' E 135°26'1 1.3
2018-Feb-05 02:28N 34°35' E 135°26'0 0.0
2018-Feb-05 01:58N 34°35' E 135°26'0 0.0
2018-Feb-05 01:28N 34°35' E 135°26'0 0.0
2018-Feb-05 00:58N 34°35' E 135°26'0 0.0
2018-Feb-05 00:28N 34°35' E 135°26'0 0.0
2018-Feb-04 23:58N 34°35' E 135°26'0 0.0
2018-Feb-04 23:28N 34°35' E 135°26'0 0.0
2018-Feb-04 22:58N 34°35' E 135°26'0 0.0
2018-Feb-04 22:28N 34°35' E 135°26'0 0.0
2018-Feb-04 21:58N 34°35' E 135°26'0 0.0
2018-Feb-04 21:28N 34°35' E 135°26'0 0.5
2018-Feb-04 21:00N 34°35' E 135°27'0 0.0
2018-Feb-04 20:00N 34°35' E 135°27'0 0.0
2018-Feb-04 19:30N 34°35' E 135°27'0 0.0
2018-Feb-04 19:00N 34°35' E 135°27'0 0.0
2018-Feb-04 18:30N 34°35' E 135°27'0 0.0
2018-Feb-04 18:00N 34°35' E 135°27'0 0.0
2018-Feb-04 17:30N 34°35' E 135°27'0 0.0
2018-Feb-04 15:30N 34°35' E 135°27'0 0.0
2018-Feb-04 15:00N 34°35' E 135°27'0 0.0
2018-Feb-04 14:30N 34°35' E 135°27'0 0.0
2018-Feb-04 14:00N 34°35' E 135°27'0 0.0
2018-Feb-04 13:30N 34°35' E 135°27'0 0.0
2018-Feb-04 12:57N 34°35' E 135°27'  
Track history (hours):
 
Tides and Currents Weather Stations Pressure Air Temp Water Temp Dewpoint Dewpoint Depression Visibility Wind Speed Wind Dir Waves Ship Positions

Kosho Maru No.2

Last reported at 2018-Feb-14 12:32 UTC. Time now 2018-Feb-17 23:59 UTC.
Position N 34°46' E 139°16'.

Length 75 m; draft 4.5 m.

Type: Cargo ship. MMSI: 431000218.

Date/timePositionNaut miles runAvg speedWind from/ knotsBaromVisibWave heightAir tempDewpointWater temp
2018-Feb-14 12:32N 34°46' E 139°16'014.8
2018-Feb-14 12:30N 34°45' E 139°15'713.6
2018-Feb-14 11:59N 34°41' E 139°08'812.5
2018-Feb-14 11:21N 34°37' E 139°00'513.2
2018-Feb-14 11:00N 34°35' E 138°55'1212.2
2018-Feb-14 10:02N 34°34' E 138°41'111.5
2018-Feb-14 09:59N 34°34' E 138°40'611.1
2018-Feb-14 09:25N 34°34' E 138°33'18010.0
2018-Feb-13 15:32N 33°51' E 135°02'013.0
2018-Feb-13 15:30N 33°52' E 135°02'611.7
2018-Feb-13 15:00N 33°56' E 134°57'611.7
2018-Feb-13 14:30N 34°01' E 134°53'611.7
2018-Feb-13 14:00N 34°05' E 134°48'812.3
2018-Feb-13 13:23N 34°11' E 134°42'612.8
2018-Feb-13 12:52N 34°16' E 134°37'511.9
2018-Feb-13 12:27N 34°18' E 134°31'511.6
2018-Feb-13 12:00N 34°20' E 134°25'  
2018-Feb-08 17:30N 33°59' E 132°35'7110.9
2018-Feb-08 11:00N 33°52' E 131°10'612.1
2018-Feb-08 10:30N 33°56' E 131°04'510.9
2018-Feb-08 10:00N 33°58' E 130°59'8 8.4
2018-Feb-08 09:00N 33°58' E 130°48'1211.7
2018-Feb-08 08:00N 33°57' E 130°34'611.1
2018-Feb-08 07:30N 33°55' E 130°28'611.6
2018-Feb-08 07:00N 33°50' E 130°24'611.7
2018-Feb-08 06:30N 33°46' E 130°19'511.0
2018-Feb-08 06:00N 33°41' E 130°16'8 1.7
2018-Feb-08 01:28N 33°37' E 130°24'0 0.0
2018-Feb-08 00:58N 33°37' E 130°24'0 0.0
2018-Feb-08 00:28N 33°37' E 130°24'0 0.0
2018-Feb-07 23:58N 33°37' E 130°24'0 0.0
2018-Feb-07 23:28N 33°37' E 130°24'0 0.0
2018-Feb-07 23:00N 33°37' E 130°24'3 5.0
2018-Feb-07 22:30N 33°37' E 130°21'0 0.2
2018-Feb-07 22:00N 33°37' E 130°21'0 0.0
2018-Feb-07 21:30N 33°37' E 130°21'0 0.0
2018-Feb-07 09:30N 33°37' E 130°21'0 0.0
2018-Feb-07 09:00N 33°37' E 130°21'0 0.0
2018-Feb-07 08:30N 33°37' E 130°21'0 0.0
2018-Feb-07 08:00N 33°37' E 130°21'0 0.0
2018-Feb-07 07:30N 33°37' E 130°21'0 0.0
2018-Feb-07 07:00N 33°37' E 130°21'0 0.0
2018-Feb-07 06:30N 33°37' E 130°21'0 0.1
2018-Feb-07 06:00N 33°37' E 130°21'3 6.9
2018-Feb-07 05:30N 33°39' E 130°18'5 9.1
2018-Feb-07 05:01N 33°43' E 130°17'510.6
2018-Feb-07 04:30N 33°48' E 130°21'510.7
2018-Feb-07 04:00N 33°52' E 130°25'510.5
2018-Feb-07 03:30N 33°56' E 130°29'510.2
2018-Feb-07 03:00N 33°58' E 130°35'510.3
2018-Feb-07 02:29N 33°58' E 130°41'510.2
2018-Feb-07 02:00N 33°58' E 130°47'5 9.6
2018-Feb-07 01:30N 33°56' E 130°53'3 6.0
2018-Feb-07 01:00N 33°56' E 130°56'5 4.8
2018-Feb-07 00:00N 33°56' E 131°02'0 0.1
2018-Feb-06 23:29N 33°56' E 131°02'0 0.0
2018-Feb-06 22:56N 33°56' E 131°02'0 0.0
2018-Feb-06 22:29N 33°56' E 131°02'0 0.0
2018-Feb-06 21:59N 33°56' E 131°02'0 0.0
2018-Feb-06 21:26N 33°56' E 131°02'0 0.0
2018-Feb-06 20:59N 33°56' E 131°02'0 0.0
2018-Feb-06 20:29N 33°56' E 131°02'0 0.0
2018-Feb-06 19:59N 33°56' E 131°02'0 0.1
2018-Feb-06 19:29N 33°56' E 131°02'0 0.0
2018-Feb-06 18:59N 33°56' E 131°02'0 0.0
2018-Feb-06 18:29N 33°56' E 131°02'0 0.0
2018-Feb-06 17:59N 33°56' E 131°02'0 0.0
2018-Feb-06 17:29N 33°56' E 131°02'0 0.0
2018-Feb-06 16:59N 33°56' E 131°02'0 0.1
2018-Feb-06 16:26N 33°56' E 131°02'0 0.0
2018-Feb-06 15:59N 33°56' E 131°02'0 0.0
2018-Feb-06 15:29N 33°56' E 131°02'0 0.0
2018-Feb-06 14:56N 33°56' E 131°02'0 0.1
2018-Feb-06 14:29N 33°56' E 131°02'0 0.1
2018-Feb-06 13:59N 33°56' E 131°02'0 0.0
2018-Feb-06 13:29N 33°56' E 131°02'0 0.0
2018-Feb-06 12:59N 33°56' E 131°02'0 0.0
2018-Feb-06 12:29N 33°56' E 131°02'0 0.1
2018-Feb-06 11:59N 33°56' E 131°02'0 0.1
2018-Feb-06 11:26N 33°56' E 131°02'0 0.0
2018-Feb-06 10:59N 33°56' E 131°02'0 0.0
2018-Feb-06 10:29N 33°56' E 131°02'0 0.0
2018-Feb-06 09:59N 33°56' E 131°02'0 0.0
2018-Feb-06 09:29N 33°56' E 131°02'0 0.0
2018-Feb-06 08:59N 33°56' E 131°02'0 0.0
2018-Feb-06 08:29N 33°56' E 131°02'0 0.1
2018-Feb-06 07:59N 33°56' E 131°02'0 0.0
2018-Feb-06 07:29N 33°56' E 131°02'0 0.0
2018-Feb-06 06:59N 33°56' E 131°02'0 0.0
2018-Feb-06 06:29N 33°56' E 131°02'0 0.0
2018-Feb-06 05:59N 33°56' E 131°02'0 0.0
2018-Feb-06 05:29N 33°56' E 131°02'0 0.0
2018-Feb-06 04:56N 33°56' E 131°02'0 0.0
2018-Feb-06 04:29N 33°56' E 131°02'0 0.0
2018-Feb-06 03:59N 33°56' E 131°02'0 0.0
2018-Feb-06 03:26N 33°56' E 131°02'0 0.0
2018-Feb-06 02:59N 33°56' E 131°02'12 8.2
2018-Feb-06 01:30N 33°51' E 131°15'510.8
2018-Feb-06 01:00N 33°53' E 131°21'2710.7
2018-Feb-05 22:28N 33°52' E 131°54'810.1
2018-Feb-05 21:43N 33°47' E 132°01'210.5
2018-Feb-05 21:30N 33°46' E 132°03'811.3
2018-Feb-05 20:45N 33°50' E 132°12'311.4
2018-Feb-05 20:30N 33°50' E 132°15'611.5
2018-Feb-05 20:00N 33°50' E 132°22'612.0
2018-Feb-05 19:28N 33°54' E 132°28'711.7
2018-Feb-05 18:51N 33°59' E 132°35'410.9
2018-Feb-05 18:30N 34°02' E 132°38'24 9.6
2018-Feb-05 15:59N 34°18' E 132°60'62 9.3
2018-Feb-05 09:19N 34°24' E 134°14'3 9.2
2018-Feb-05 09:01N 34°25' E 134°18'6 9.6
2018-Feb-05 08:26N 34°26' E 134°24'4 9.9
2018-Feb-05 08:00N 34°28' E 134°29'510.0
2018-Feb-05 07:30N 34°29' E 134°35'5 9.9
2018-Feb-05 06:59N 34°31' E 134°41'5 9.9
2018-Feb-05 06:30N 34°33' E 134°46'10 9.8
2018-Feb-05 05:30N 34°37' E 134°57'5 9.0
2018-Feb-05 05:00N 34°37' E 135°02'510.0
2018-Feb-05 04:31N 34°36' E 135°08'510.2
2018-Feb-05 04:00N 34°36' E 135°14'510.1
2018-Feb-05 03:31N 34°36' E 135°21'4 9.0
2018-Feb-05 03:00N 34°35' E 135°26'1 1.3
2018-Feb-05 02:28N 34°35' E 135°26'0 0.0
2018-Feb-05 01:58N 34°35' E 135°26'0 0.0
2018-Feb-05 01:28N 34°35' E 135°26'0 0.0
2018-Feb-05 00:58N 34°35' E 135°26'0 0.0
2018-Feb-05 00:28N 34°35' E 135°26'0 0.0
2018-Feb-04 23:58N 34°35' E 135°26'0 0.0
2018-Feb-04 23:28N 34°35' E 135°26'0 0.0
2018-Feb-04 22:58N 34°35' E 135°26'0 0.0
2018-Feb-04 22:28N 34°35' E 135°26'0 0.0
2018-Feb-04 21:58N 34°35' E 135°26'0 0.0
2018-Feb-04 21:28N 34°35' E 135°26'0 0.5
2018-Feb-04 21:00N 34°35' E 135°27'0 0.0
2018-Feb-04 20:00N 34°35' E 135°27'0 0.0
2018-Feb-04 19:30N 34°35' E 135°27'0 0.0
2018-Feb-04 19:00N 34°35' E 135°27'0 0.0
2018-Feb-04 18:30N 34°35' E 135°27'0 0.0
2018-Feb-04 18:00N 34°35' E 135°27'0 0.0
2018-Feb-04 17:30N 34°35' E 135°27'0 0.0
2018-Feb-04 15:30N 34°35' E 135°27'0 0.0
2018-Feb-04 15:00N 34°35' E 135°27'0 0.0
2018-Feb-04 14:30N 34°35' E 135°27'0 0.0
2018-Feb-04 14:00N 34°35' E 135°27'0 0.0
2018-Feb-04 13:30N 34°35' E 135°27'0 0.0
2018-Feb-04 12:57N 34°35' E 135°27'  

Dump ship's entire track history